createdAt,value
2023-04-04T00:01:53.800Z,13.36
2023-04-04T00:06:59.172Z,13.36
2023-04-04T00:12:04.937Z,13.35
2023-04-04T00:17:09.987Z,13.38
2023-04-04T00:22:19.548Z,13.40
2023-04-04T00:27:24.881Z,13.39
2023-04-04T00:32:30.022Z,13.43
2023-04-04T00:37:35.755Z,13.51
2023-04-04T00:42:41.140Z,13.51
2023-04-04T00:47:46.686Z,13.55
2023-04-04T00:52:52.731Z,13.60
2023-04-04T00:58:00.134Z,13.60
2023-04-04T01:03:08.947Z,13.54
2023-04-04T01:08:14.338Z,13.51
2023-04-04T01:13:19.768Z,13.39
2023-04-04T01:18:26.983Z,13.46
2023-04-04T01:23:51.937Z,13.50
2023-04-04T01:29:00.051Z,13.54
2023-04-04T01:34:40.064Z,13.50
2023-04-04T01:39:58.537Z,13.49
2023-04-04T01:45:04.184Z,13.28
2023-04-04T01:50:13.634Z,12.97
2023-04-04T01:55:19.123Z,12.90
2023-04-04T02:00:24.323Z,12.78
2023-04-04T02:05:29.794Z,12.72
2023-04-04T02:10:35.021Z,12.62
2023-04-04T02:15:40.433Z,12.54
2023-04-04T02:20:45.901Z,12.38
2023-04-04T02:25:52.918Z,12.25
2023-04-04T02:30:57.964Z,12.15
2023-04-04T02:36:03.046Z,12.05
2023-04-04T02:41:08.519Z,12.05
2023-04-04T02:46:21.660Z,11.97
2023-04-04T02:51:34.820Z,11.91
2023-04-04T02:56:39.929Z,11.83
2023-04-04T03:01:45.128Z,11.79
2023-04-04T03:06:50.642Z,11.78
2023-04-04T03:11:56.129Z,11.81
2023-04-04T03:17:01.496Z,11.86
2023-04-04T03:22:07.774Z,11.86
2023-04-04T03:27:12.984Z,11.94
2023-04-04T03:32:19.551Z,11.97
2023-04-04T03:37:24.863Z,12.02
2023-04-04T03:42:34.485Z,12.01
2023-04-04T03:47:44.024Z,12.04
2023-04-04T03:52:49.489Z,12.03
2023-04-04T03:57:56.321Z,12.07
2023-04-04T04:03:01.889Z,12.13
2023-04-04T04:08:08.150Z,12.09
2023-04-04T04:13:15.750Z,12.02
2023-04-04T04:18:21.525Z,11.93
2023-04-04T04:23:29.184Z,11.88
2023-04-04T04:28:35.128Z,11.87
2023-04-04T04:33:47.550Z,11.84
2023-04-04T04:38:55.841Z,11.69
2023-04-04T04:44:04.699Z,11.72
2023-04-04T04:49:10.907Z,11.70
2023-04-04T04:54:17.347Z,11.74
2023-04-04T04:59:24.124Z,11.75
2023-04-04T05:04:29.076Z,11.72
2023-04-04T05:09:43.520Z,11.69
2023-04-04T05:14:52.697Z,11.58
2023-04-04T05:19:59.137Z,11.52
2023-04-04T05:25:07.412Z,11.51
2023-04-04T05:30:15.743Z,11.44
2023-04-04T05:35:34.637Z,11.43
2023-04-04T05:40:40.915Z,11.39
2023-04-04T05:45:50.559Z,11.36
2023-04-04T05:50:57.809Z,11.32
2023-04-04T05:56:17.333Z,11.28
2023-04-04T06:01:23.812Z,11.29
2023-04-04T06:06:34.338Z,11.26
2023-04-04T06:11:41.225Z,11.25
2023-04-04T06:16:50.231Z,11.18
2023-04-04T06:21:57.572Z,11.13
2023-04-04T06:27:04.018Z,11.20
2023-04-04T06:32:12.552Z,11.20
2023-04-04T06:37:27.593Z,11.12
2023-04-04T06:42:43.017Z,11.05
2023-04-04T06:47:48.762Z,10.96
2023-04-04T06:52:54.782Z,10.92
2023-04-04T06:58:00.400Z,10.95
2023-04-04T07:03:05.837Z,10.99
2023-04-04T07:08:12.633Z,10.98
2023-04-04T07:13:18.325Z,10.95
2023-04-04T07:18:23.756Z,10.91
2023-04-04T07:23:29.225Z,10.89
2023-04-04T07:28:34.780Z,10.88
2023-04-04T07:33:40.118Z,10.88
2023-04-04T07:38:46.423Z,10.89
2023-04-04T07:43:56.001Z,10.87
2023-04-04T07:49:02.580Z,10.87
2023-04-04T07:54:08.536Z,10.84
2023-04-04T07:59:14.015Z,10.87
2023-04-04T08:04:20.014Z,10.87
2023-04-04T08:09:26.220Z,10.81
2023-04-04T08:14:32.815Z,10.78
2023-04-04T08:19:38.855Z,10.74
2023-04-04T08:24:44.417Z,10.67
2023-04-04T08:29:49.827Z,10.63
2023-04-04T08:34:54.510Z,10.56
2023-04-04T08:39:59.807Z,10.53
2023-04-04T08:45:06.501Z,10.48
2023-04-04T08:50:12.093Z,10.43
2023-04-04T08:55:17.563Z,10.36
2023-04-04T09:00:24.155Z,10.34
2023-04-04T09:05:29.775Z,10.29
2023-04-04T09:10:37.434Z,10.26
2023-04-04T09:15:46.215Z,10.21
2023-04-04T09:20:52.809Z,10.17
2023-04-04T09:26:03.988Z,10.12
2023-04-04T09:31:11.546Z,10.09
2023-04-04T09:36:18.337Z,10.05
2023-04-04T09:41:23.746Z,10.01
2023-04-04T09:46:29.464Z,9.94
2023-04-04T09:51:38.396Z,9.84
2023-04-04T09:56:46.029Z,9.79
2023-04-04T10:01:53.337Z,9.78
2023-04-04T10:07:00.918Z,9.78
2023-04-04T10:12:14.800Z,9.74
2023-04-04T10:17:20.944Z,9.75
2023-04-04T10:22:26.709Z,9.72
2023-04-04T10:27:33.094Z,9.70
2023-04-04T10:33:07.577Z,9.65
2023-04-04T10:38:14.568Z,9.67
2023-04-04T10:43:27.883Z,9.65
2023-04-04T10:48:33.992Z,9.65
2023-04-04T10:53:44.144Z,9.63
2023-04-04T10:58:52.105Z,9.58
2023-04-04T11:04:22.862Z,9.56
2023-04-04T11:09:56.674Z,9.48
2023-04-04T11:15:05.121Z,9.42
2023-04-04T11:20:11.876Z,9.36
2023-04-04T11:25:36.210Z,9.30
2023-04-04T11:30:46.030Z,9.23
2023-04-04T11:35:52.606Z,9.18
2023-04-04T11:40:57.576Z,9.12
2023-04-04T11:46:10.263Z,9.06
2023-04-04T11:51:16.368Z,9.06
2023-04-04T11:56:22.172Z,9.05
2023-04-04T12:01:27.545Z,9.04
2023-04-04T12:06:39.825Z,9.06
2023-04-04T12:11:48.574Z,9.07
2023-04-04T12:16:58.874Z,9.09
2023-04-04T12:22:07.701Z,9.10
2023-04-04T12:27:13.208Z,9.10
2023-04-04T12:32:18.786Z,9.08
2023-04-04T12:37:23.960Z,9.07
2023-04-04T12:42:29.898Z,9.06
2023-04-04T12:47:36.307Z,9.05
2023-04-04T12:52:42.440Z,9.05
2023-04-04T12:57:48.375Z,9.05
2023-04-04T13:02:53.755Z,9.05
2023-04-04T13:08:14.113Z,9.02
2023-04-04T13:13:34.257Z,9.03
2023-04-04T13:18:44.870Z,9.03
2023-04-04T13:23:51.144Z,9.04
2023-04-04T13:28:56.516Z,9.07
2023-04-04T13:34:01.948Z,9.07
2023-04-04T13:39:07.651Z,9.10
2023-04-04T13:44:16.717Z,9.13
2023-04-04T13:49:22.842Z,9.14
2023-04-04T13:54:29.390Z,9.14
2023-04-04T13:59:36.561Z,9.13
2023-04-04T14:04:46.274Z,9.11
2023-04-04T14:09:54.373Z,9.10
2023-04-04T14:15:00.660Z,9.10
2023-04-04T14:20:08.321Z,9.05
2023-04-04T14:25:14.513Z,9.04
2023-04-04T14:30:20.720Z,9.00
2023-04-04T14:35:30.618Z,8.96
2023-04-04T14:40:36.375Z,8.99
2023-04-04T14:45:43.144Z,9.08
2023-04-04T14:50:50.766Z,9.11
2023-04-04T14:55:56.594Z,9.08
2023-04-04T15:01:02.982Z,9.01
2023-04-04T15:06:09.042Z,8.97
2023-04-04T15:11:15.398Z,8.95
2023-04-04T15:16:21.062Z,8.90
2023-04-04T15:21:29.361Z,8.90
2023-04-04T15:26:35.643Z,8.89
2023-04-04T15:31:41.221Z,8.82
2023-04-04T15:36:47.073Z,8.84
2023-04-04T15:41:52.945Z,8.82
2023-04-04T15:46:58.448Z,8.82
2023-04-04T15:52:06.013Z,8.84
2023-04-04T15:57:13.280Z,8.81
2023-04-04T16:02:19.272Z,8.80
2023-04-04T16:07:24.892Z,8.82
2023-04-04T16:12:30.699Z,8.82
2023-04-04T16:17:37.812Z,8.83
2023-04-04T16:22:43.591Z,8.85
2023-04-04T16:27:49.978Z,8.83
2023-04-04T16:32:55.952Z,8.86
2023-04-04T16:38:02.103Z,8.84
2023-04-04T16:43:08.332Z,8.79
2023-04-04T16:48:13.927Z,8.79
2023-04-04T16:53:19.485Z,8.77
2023-04-04T16:58:26.152Z,8.71
2023-04-04T17:03:32.399Z,8.71
2023-04-04T17:08:37.825Z,8.71
2023-04-04T17:13:43.602Z,8.71
2023-04-04T17:18:49.843Z,8.68
2023-04-04T17:23:55.361Z,8.68
2023-04-04T17:29:00.940Z,8.69
2023-04-04T17:34:06.897Z,8.70
2023-04-04T17:39:13.111Z,8.69
2023-04-04T17:44:20.409Z,8.66
2023-04-04T17:49:25.961Z,8.64
2023-04-04T17:54:31.988Z,8.60
2023-04-04T17:59:38.589Z,8.59
2023-04-04T18:04:44.472Z,8.54
2023-04-04T18:09:50.224Z,8.50
2023-04-04T18:14:55.652Z,8.45
2023-04-04T18:20:02.093Z,8.43
2023-04-04T18:25:09.528Z,8.39
2023-04-04T18:30:15.044Z,8.36
2023-04-04T18:35:21.030Z,8.29
2023-04-04T18:40:28.449Z,8.26
2023-04-04T18:45:40.440Z,8.28
2023-04-04T18:50:46.961Z,8.25
2023-04-04T18:55:56.298Z,8.17
2023-04-04T19:01:04.800Z,8.16
2023-04-04T19:06:12.468Z,8.12
2023-04-04T19:11:19.458Z,8.07
2023-04-04T19:16:26.115Z,8.04
2023-04-04T19:21:32.855Z,8.07
2023-04-04T19:26:39.412Z,8.08
2023-04-04T19:31:45.078Z,8.08
2023-04-04T19:36:51.351Z,8.07
2023-04-04T19:41:57.964Z,8.06
2023-04-04T19:47:03.209Z,8.08
2023-04-04T19:52:10.468Z,8.10
2023-04-04T19:57:23.922Z,8.12
2023-04-04T20:02:35.589Z,8.14
2023-04-04T20:07:40.991Z,8.12
2023-04-04T20:12:47.084Z,8.12
2023-04-04T20:17:52.623Z,8.08
2023-04-04T20:22:57.868Z,8.04
2023-04-04T20:28:03.396Z,7.96
2023-04-04T20:33:31.410Z,7.89
2023-04-04T20:38:38.893Z,7.80
2023-04-04T20:43:51.774Z,7.75
2023-04-04T20:49:00.208Z,7.71
2023-04-04T20:54:05.709Z,7.69
2023-04-04T20:59:47.022Z,7.74
2023-04-04T21:04:53.114Z,7.76
2023-04-04T21:09:58.991Z,7.79
2023-04-04T21:15:07.878Z,7.82
2023-04-04T21:20:38.586Z,7.84
2023-04-04T21:25:46.757Z,7.83
2023-04-04T21:30:52.147Z,7.87
2023-04-04T21:35:58.103Z,7.90
2023-04-04T21:41:11.651Z,7.90
2023-04-04T21:46:17.102Z,7.91
2023-04-04T21:51:23.136Z,7.90
2023-04-04T21:56:32.451Z,7.92
2023-04-04T22:01:39.200Z,7.91
2023-04-04T22:06:44.620Z,7.91
2023-04-04T22:11:50.366Z,7.91
2023-04-04T22:17:01.141Z,7.93
2023-04-04T22:22:06.777Z,7.94
2023-04-04T22:27:15.959Z,7.97
2023-04-04T22:32:21.260Z,8.03
2023-04-04T22:37:28.672Z,8.08
2023-04-04T22:42:34.143Z,8.18
2023-04-04T22:47:39.997Z,8.21
2023-04-04T22:52:45.463Z,8.28
2023-04-04T22:57:51.129Z,8.36
2023-04-04T23:02:56.826Z,8.42
2023-04-04T23:08:04.918Z,8.50
2023-04-04T23:13:10.239Z,8.58
2023-04-04T23:18:15.535Z,8.62
2023-04-04T23:23:20.906Z,8.64
2023-04-04T23:28:27.071Z,8.70
2023-04-04T23:33:32.476Z,8.76
2023-04-04T23:38:38.086Z,8.80
2023-04-04T23:43:44.521Z,8.83
2023-04-04T23:48:49.970Z,8.88
2023-04-04T23:53:55.295Z,8.97
2023-04-04T23:59:01.187Z,9.04
